Time;durP1;ratioP1;P1;durP2;ratioP2;P2;SDS_P1;SDS_P2;PMS_P1;PMS_P2;Temp;Humidity;BMP_temperature;BMP_pressure;BME280_temperature;BME280_humidity;BME280_pressure;Samples;Min_cycle;Max_cycle;Signal;HPM_P1;HPM_P2
2024/02/11 00:01:00;;;;;;;4.97;4.97;;;11.00;99.90;;;;;;10446533;28;20631;-78
2024/02/11 00:06:04;;;;;;;5.10;5.10;;;11.00;99.90;;;;;;10441617;28;20756;-79
2024/02/11 00:11:07;;;;;;;5.40;5.40;;;10.90;99.90;;;;;;10440402;28;20275;-78
2024/02/11 00:16:11;;;;;;;6.10;6.10;;;10.90;99.90;;;;;;10443597;28;20224;-79
2024/02/11 00:21:14;;;;;;;5.47;5.47;;;10.90;99.90;;;;;;10448591;28;20635;-78
2024/02/11 00:26:17;;;;;;;6.00;6.00;;;10.90;99.90;;;;;;10447971;28;20270;-78
2024/02/11 00:31:25;;;;;;;5.50;5.50;;;10.80;99.90;;;;;;10450605;28;20204;-79
2024/02/11 00:36:27;;;;;;;5.63;5.63;;;10.80;99.90;;;;;;10447554;28;20283;-80
2024/02/11 00:41:29;;;;;;;6.03;6.03;;;10.70;99.90;;;;;;10446369;28;20202;-79
2024/02/11 00:46:34;;;;;;;5.70;5.70;;;10.70;99.90;;;;;;10445163;28;20224;-78
2024/02/11 00:51:36;;;;;;;5.90;5.90;;;10.70;99.90;;;;;;10449157;28;20232;-80
2024/02/11 00:56:41;;;;;;;5.90;5.90;;;10.70;99.90;;;;;;10451573;28;20710;-79
2024/02/11 01:01:45;;;;;;;6.43;6.43;;;10.70;99.90;;;;;;10452099;28;20209;-79
2024/02/11 01:06:47;;;;;;;6.10;6.10;;;10.70;99.90;;;;;;10455210;28;20224;-81
2024/02/11 01:11:50;;;;;;;6.00;6.00;;;10.70;99.90;;;;;;10446800;28;20193;-80
2024/02/11 01:16:55;;;;;;;5.83;5.83;;;10.70;99.90;;;;;;10447979;28;20267;-80
2024/02/11 01:21:57;;;;;;;6.10;6.10;;;10.70;99.90;;;;;;10433661;28;20229;-80
2024/02/11 01:26:59;;;;;;;6.70;6.70;;;10.70;99.90;;;;;;10433460;28;20224;-78
2024/02/11 01:32:05;;;;;;;6.20;6.20;;;10.70;99.90;;;;;;10430973;28;20245;-81
2024/02/11 01:37:07;;;;;;;6.40;6.40;;;10.70;99.90;;;;;;10432123;28;20226;-78
2024/02/11 01:42:09;;;;;;;6.53;6.53;;;10.70;99.90;;;;;;10440376;28;20422;-78
2024/02/11 01:47:13;;;;;;;6.60;6.60;;;10.70;99.90;;;;;;10460006;28;20217;-80
2024/02/11 01:52:16;;;;;;;6.63;6.63;;;10.70;99.90;;;;;;10458919;28;20197;-78
2024/02/11 01:57:18;;;;;;;6.77;6.77;;;10.70;99.90;;;;;;10460585;28;20221;-83
2024/02/11 02:02:23;;;;;;;6.30;6.30;;;10.70;99.90;;;;;;10448404;28;20358;-81
2024/02/11 02:07:26;;;;;;;6.60;6.60;;;10.70;99.90;;;;;;10441168;28;20280;-79
2024/02/11 02:12:28;;;;;;;6.40;6.40;;;10.70;99.90;;;;;;10444005;28;20702;-79
2024/02/11 02:17:32;;;;;;;6.30;6.30;;;10.70;99.90;;;;;;10458757;28;20721;-79
2024/02/11 02:22:36;;;;;;;6.70;6.70;;;10.70;99.90;;;;;;10458662;28;20251;-80
2024/02/11 02:27:40;;;;;;;6.33;6.33;;;10.60;99.90;;;;;;10457428;28;20224;-81
2024/02/11 02:32:44;;;;;;;6.80;6.80;;;10.70;99.90;;;;;;10460282;28;20185;-77
2024/02/11 02:37:47;;;;;;;6.30;6.30;;;10.70;99.90;;;;;;10447464;28;20213;-80
2024/02/11 02:42:50;;;;;;;6.60;6.60;;;10.70;99.90;;;;;;10453424;28;20274;-79
2024/02/11 02:47:53;;;;;;;6.40;6.40;;;10.70;99.90;;;;;;10450229;28;20287;-80
2024/02/11 02:52:57;;;;;;;7.00;7.00;;;10.70;99.90;;;;;;10447827;28;20243;-78
2024/02/11 02:57:59;;;;;;;6.80;6.80;;;10.70;99.90;;;;;;10447605;28;20220;-79
2024/02/11 03:03:06;;;;;;;6.70;6.70;;;10.70;99.90;;;;;;10447278;28;20213;-81
2024/02/11 03:08:10;;;;;;;6.70;6.70;;;10.70;99.90;;;;;;10440948;28;20221;-79
2024/02/11 03:13:12;;;;;;;6.80;6.80;;;10.70;99.90;;;;;;10447128;28;20201;-80
2024/02/11 03:18:14;;;;;;;7.20;7.20;;;10.70;99.90;;;;;;10432333;28;20282;-79
2024/02/11 03:23:18;;;;;;;7.03;7.03;;;10.60;99.90;;;;;;10458850;28;20224;-79
2024/02/11 03:28:20;;;;;;;7.00;7.00;;;10.50;99.90;;;;;;10454382;28;20221;-78
2024/02/11 03:33:23;;;;;;;5.53;5.53;;;10.40;99.90;;;;;;10453045;28;20193;-79
2024/02/11 03:38:26;;;;;;;7.90;7.80;;;10.30;99.90;;;;;;10467440;28;20354;-80
2024/02/11 03:43:29;;;;;;;6.70;6.70;;;10.10;99.90;;;;;;10469341;28;20274;-80
2024/02/11 03:48:31;;;;;;;6.97;6.97;;;10.00;99.90;;;;;;10467596;28;20722;-81
2024/02/11 03:53:35;;;;;;;7.20;7.20;;;9.80;99.90;;;;;;10450558;28;20209;-80
2024/02/11 03:58:41;;;;;;;8.17;8.07;;;9.70;99.90;;;;;;10460342;28;20229;-80
2024/02/11 04:03:43;;;;;;;7.40;7.30;;;9.60;99.90;;;;;;10463291;28;21282;-79
2024/02/11 04:08:47;;;;;;;8.57;8.47;;;9.60;99.90;;;;;;10459966;28;20221;-79
2024/02/11 04:13:50;;;;;;;7.30;7.20;;;9.60;99.90;;;;;;10462362;28;20208;-80
2024/02/11 04:18:53;;;;;;;7.90;7.80;;;9.50;99.90;;;;;;10464418;28;20213;-80
2024/02/11 04:23:58;;;;;;;7.80;7.70;;;9.50;99.90;;;;;;10458302;28;20213;-79
2024/02/11 04:29:02;;;;;;;7.40;7.30;;;9.40;99.90;;;;;;10465085;28;20224;-78
2024/02/11 04:34:05;;;;;;;7.43;7.33;;;9.40;99.90;;;;;;10466065;28;20193;-79
2024/02/11 04:39:09;;;;;;;8.33;8.23;;;9.30;99.90;;;;;;10466008;28;20566;-79
2024/02/11 04:44:11;;;;;;;7.20;7.20;;;9.20;99.90;;;;;;10457559;28;20275;-78
2024/02/11 04:49:14;;;;;;;8.20;8.10;;;9.20;99.90;;;;;;10458923;28;20221;-79
2024/02/11 04:54:18;;;;;;;6.70;6.70;;;9.20;99.90;;;;;;10443836;28;20808;-80
2024/02/11 04:59:21;;;;;;;7.03;7.03;;;9.20;99.90;;;;;;10452579;28;20221;-80
2024/02/11 05:04:25;;;;;;;7.80;7.70;;;9.00;99.90;;;;;;10460727;28;20213;-81
2024/02/11 05:09:30;;;;;;;7.10;7.10;;;8.90;99.90;;;;;;10435929;28;20232;-77
2024/02/11 05:14:34;;;;;;;6.77;6.77;;;8.80;99.90;;;;;;10443609;28;20205;-79
2024/02/11 05:19:36;;;;;;;7.73;7.63;;;8.60;99.90;;;;;;10450322;28;20267;-79
2024/02/11 05:24:42;;;;;;;7.13;7.13;;;8.50;99.90;;;;;;10448850;28;20224;-79
2024/02/11 05:29:45;;;;;;;7.80;7.70;;;8.40;99.90;;;;;;10451642;28;20626;-79
2024/02/11 05:34:47;;;;;;;6.60;6.60;;;8.40;99.90;;;;;;10451296;28;20185;-80
2024/02/11 05:39:52;;;;;;;6.33;6.33;;;8.40;99.90;;;;;;10441979;28;20739;-79
2024/02/11 05:44:54;;;;;;;6.10;6.10;;;8.20;99.90;;;;;;10435456;28;20229;-79
2024/02/11 05:49:57;;;;;;;6.87;6.87;;;8.20;99.90;;;;;;10450681;28;20259;-80
2024/02/11 05:55:01;;;;;;;7.00;7.00;;;8.20;99.90;;;;;;10445738;28;20210;-80
2024/02/11 06:00:10;;;;;;;6.90;6.90;;;8.10;99.90;;;;;;10447671;28;20212;-78
2024/02/11 06:05:14;;;;;;;6.53;6.53;;;8.10;99.90;;;;;;10434870;28;20731;-80
2024/02/11 06:10:18;;;;;;;6.40;6.40;;;8.10;99.90;;;;;;10449245;28;20224;-78
2024/02/11 06:15:21;;;;;;;6.27;6.27;;;8.00;99.90;;;;;;10443792;28;20270;-79
2024/02/11 06:20:23;;;;;;;5.90;5.90;;;8.00;99.90;;;;;;10455193;28;20254;-80
2024/02/11 06:25:27;;;;;;;6.00;6.00;;;7.90;99.90;;;;;;10448200;28;20248;-78
2024/02/11 06:30:29;;;;;;;6.40;6.40;;;7.90;99.90;;;;;;10465950;28;20231;-80
2024/02/11 06:35:32;;;;;;;6.20;6.20;;;7.90;99.90;;;;;;10469541;28;20570;-80
2024/02/11 06:40:35;;;;;;;6.10;6.10;;;7.90;99.90;;;;;;10456083;28;20740;-77
2024/02/11 06:45:40;;;;;;;5.83;5.83;;;7.80;99.90;;;;;;10449627;28;20233;-78
2024/02/11 06:50:42;;;;;;;5.60;5.60;;;7.90;99.90;;;;;;10444294;28;20263;-77
2024/02/11 06:55:47;;;;;;;5.50;5.50;;;7.80;99.90;;;;;;10443404;28;20217;-79
2024/02/11 07:00:49;;;;;;;5.87;5.87;;;7.90;99.90;;;;;;10449274;28;20271;-80
2024/02/11 07:05:52;;;;;;;6.53;6.53;;;7.80;99.90;;;;;;10454719;28;20772;-78
2024/02/11 07:10:55;;;;;;;5.93;5.93;;;7.90;99.90;;;;;;10439225;28;20194;-79
2024/02/11 07:15:59;;;;;;;4.97;4.97;;;7.90;99.90;;;;;;10453887;28;20296;-79
2024/02/11 07:21:01;;;;;;;4.83;4.83;;;7.90;99.90;;;;;;10457643;28;20201;-79
2024/02/11 07:26:05;;;;;;;4.80;4.80;;;7.80;99.90;;;;;;10454440;28;20213;-78
2024/02/11 07:31:07;;;;;;;5.63;5.63;;;7.80;99.90;;;;;;10449578;28;20252;-78
2024/02/11 07:36:10;;;;;;;5.07;5.07;;;7.80;99.90;;;;;;10446590;28;20224;-78
2024/02/11 07:41:14;;;;;;;5.40;5.40;;;7.80;99.90;;;;;;10445953;28;20214;-79
2024/02/11 07:46:17;;;;;;;5.20;5.20;;;7.80;99.90;;;;;;10439898;28;20221;-79
2024/02/11 07:51:21;;;;;;;5.40;5.40;;;7.80;99.90;;;;;;10446790;28;20201;-79
2024/02/11 07:56:25;;;;;;;5.00;5.00;;;7.90;99.90;;;;;;10446016;28;20275;-77
2024/02/11 08:01:27;;;;;;;4.20;4.20;;;7.90;99.90;;;;;;10445045;28;20206;-77
2024/02/11 08:06:29;;;;;;;4.80;4.80;;;8.00;99.90;;;;;;10444883;28;20221;-78
2024/02/11 08:11:33;;;;;;;3.70;3.70;;;8.00;99.90;;;;;;10431789;28;20210;-77
2024/02/11 08:16:35;;;;;;;4.30;4.30;;;8.10;99.90;;;;;;10443020;28;20826;-77
2024/02/11 08:21:38;;;;;;;4.00;4.00;;;8.20;99.90;;;;;;10447465;28;20267;-76
2024/02/11 08:26:42;;;;;;;4.07;4.07;;;8.30;99.90;;;;;;10448286;28;20233;-77
2024/02/11 08:31:44;;;;;;;2.30;2.30;;;8.40;99.90;;;;;;10447882;28;20239;-78
2024/02/11 08:36:46;;;;;;;2.20;2.20;;;8.40;99.90;;;;;;10452920;28;20213;-79
2024/02/11 08:41:52;;;;;;;2.27;2.27;;;8.60;99.90;;;;;;10442992;28;20244;-79
2024/02/11 08:46:55;;;;;;;2.60;2.60;;;8.70;99.90;;;;;;10453935;28;20228;-78
2024/02/11 08:51:58;;;;;;;1.80;1.80;;;8.80;99.90;;;;;;10449119;28;20208;-79
2024/02/11 08:57:02;;;;;;;1.77;1.77;;;9.10;99.90;;;;;;10451588;28;20213;-79
2024/02/11 09:02:05;;;;;;;1.90;1.90;;;9.20;99.90;;;;;;10458726;28;20205;-77
2024/02/11 09:07:09;;;;;;;1.50;1.50;;;9.40;99.90;;;;;;10444517;28;20655;-79
2024/02/11 09:12:13;;;;;;;1.30;1.30;;;9.60;99.90;;;;;;10452741;28;20209;-80
2024/02/11 09:17:16;;;;;;;1.33;1.33;;;9.70;99.90;;;;;;10459998;28;20213;-80
2024/02/11 09:22:18;;;;;;;1.37;1.37;;;9.70;99.90;;;;;;10451641;28;20262;-79
2024/02/11 09:27:22;;;;;;;1.10;1.10;;;9.80;99.90;;;;;;10452815;28;20232;-78
2024/02/11 09:32:24;;;;;;;1.17;1.17;;;9.90;99.90;;;;;;10439021;28;20194;-79
2024/02/11 09:37:27;;;;;;;1.07;1.07;;;9.90;99.90;;;;;;10459657;28;20212;-77
2024/02/11 09:42:31;;;;;;;1.00;1.00;;;10.00;99.90;;;;;;10451505;28;20197;-78
2024/02/11 09:47:35;;;;;;;1.00;1.00;;;10.10;99.90;;;;;;10444162;28;20217;-79
2024/02/11 09:52:38;;;;;;;1.00;1.00;;;10.10;99.90;;;;;;10451948;28;20626;-78
2024/02/11 09:57:41;;;;;;;0.80;0.80;;;10.20;99.90;;;;;;10449712;28;20218;-78
2024/02/11 10:02:45;;;;;;;0.70;0.70;;;10.30;99.90;;;;;;10427701;28;20617;-80
2024/02/11 10:07:51;;;;;;;0.90;0.90;;;10.40;99.90;;;;;;10433568;28;20248;-79
2024/02/11 10:12:57;;;;;;;0.90;0.90;;;10.40;99.90;;;;;;10462630;28;20259;-80
2024/02/11 10:18:01;;;;;;;0.80;0.80;;;10.60;99.90;;;;;;10478583;28;20236;-80
2024/02/11 10:23:05;;;;;;;0.80;0.80;;;10.60;99.90;;;;;;10481141;28;20209;-80
2024/02/11 10:28:08;;;;;;;0.87;0.87;;;10.70;99.90;;;;;;10473738;28;20259;-79
2024/02/11 10:33:11;;;;;;;0.90;0.90;;;10.80;99.90;;;;;;10476713;28;20202;-81
2024/02/11 10:38:13;;;;;;;0.80;0.80;;;10.90;99.90;;;;;;10478837;28;20273;-80
2024/02/11 10:43:20;;;;;;;0.87;0.87;;;11.10;99.90;;;;;;10481142;28;20253;-80
2024/02/11 10:48:23;;;;;;;0.90;0.90;;;11.20;99.90;;;;;;10469635;28;20233;-78
2024/02/11 10:53:33;;;;;;;0.60;0.60;;;11.30;99.90;;;;;;10453612;28;20241;-82
2024/02/11 10:58:43;;;;;;;0.80;0.80;;;11.30;99.90;;;;;;10470835;28;20287;-81
2024/02/11 11:03:46;;;;;;;0.80;0.80;;;11.40;99.90;;;;;;10464214;28;20270;-82
2024/02/11 11:08:50;;;;;;;0.80;0.80;;;11.40;99.90;;;;;;10468682;28;20221;-81
2024/02/11 11:13:56;;;;;;;0.50;0.50;;;11.40;99.90;;;;;;10441824;28;20201;-79
2024/02/11 11:19:03;;;;;;;0.70;0.70;;;11.40;99.90;;;;;;10436844;28;20263;-80
2024/02/11 11:24:09;;;;;;;0.73;0.73;;;11.40;99.90;;;;;;10430197;28;20193;-78
2024/02/11 11:29:15;;;;;;;0.60;0.60;;;11.40;99.90;;;;;;10433111;28;20252;-80
2024/02/11 11:34:18;;;;;;;0.50;0.50;;;11.40;99.90;;;;;;10405668;28;20197;-81
2024/02/11 11:39:20;;;;;;;0.60;0.60;;;11.30;99.90;;;;;;10424815;28;20209;-79
2024/02/11 11:44:24;;;;;;;0.60;0.60;;;11.40;99.90;;;;;;10432750;28;20208;-79
2024/02/11 11:49:27;;;;;;;0.50;0.50;;;11.30;99.90;;;;;;10432931;28;20216;-80
2024/02/11 11:54:29;;;;;;;0.50;0.50;;;11.30;99.90;;;;;;10435513;28;20205;-81
2024/02/11 11:59:33;;;;;;;0.50;0.50;;;11.40;99.90;;;;;;10428491;28;20235;-80
2024/02/11 12:04:36;;;;;;;0.50;0.50;;;11.40;99.90;;;;;;10431546;28;20212;-80
2024/02/11 12:09:39;;;;;;;0.60;0.60;;;11.30;99.90;;;;;;10431846;28;20485;-79
2024/02/11 12:14:43;;;;;;;0.50;0.50;;;11.30;99.90;;;;;;10445987;28;20629;-79
2024/02/11 12:19:48;;;;;;;0.47;0.47;;;11.30;99.90;;;;;;10440571;28;20206;-79
2024/02/11 12:24:50;;;;;;;0.60;0.60;;;11.40;99.90;;;;;;10453828;28;20255;-79
2024/02/11 12:29:57;;;;;;;0.40;0.40;;;11.40;99.90;;;;;;10442938;28;20209;-80
2024/02/11 12:35:00;;;;;;;0.60;0.60;;;11.50;99.90;;;;;;10441503;28;20209;-79
2024/02/11 12:40:03;;;;;;;0.50;0.50;;;11.50;99.90;;;;;;10446362;28;20210;-77
2024/02/11 12:45:08;;;;;;;0.60;0.60;;;11.60;99.90;;;;;;10448604;28;20213;-79
2024/02/11 12:50:11;;;;;;;0.60;0.60;;;11.60;99.90;;;;;;10443990;28;20631;-79
2024/02/11 12:55:13;;;;;;;0.50;0.50;;;11.60;99.90;;;;;;10443642;28;20439;-79
2024/02/11 13:00:18;;;;;;;0.60;0.60;;;11.60;99.90;;;;;;10457953;28;20216;-79
2024/02/11 13:05:20;;;;;;;0.50;0.50;;;11.50;99.90;;;;;;10457537;28;20221;-79
2024/02/11 13:10:23;;;;;;;0.47;0.47;;;11.40;99.90;;;;;;10458935;28;20664;-79
2024/02/11 13:15:26;;;;;;;0.40;0.40;;;11.40;99.90;;;;;;10459807;28;20224;-80
2024/02/11 13:20:29;;;;;;;0.40;0.40;;;11.40;99.90;;;;;;10436949;28;20274;-76
2024/02/11 13:25:31;;;;;;;0.60;0.60;;;11.60;99.90;;;;;;10444911;28;20691;-77
2024/02/11 13:30:37;;;;;;;0.60;0.60;;;11.70;99.90;;;;;;10439639;28;20205;-77
2024/02/11 13:35:41;;;;;;;0.50;0.50;;;11.70;99.90;;;;;;10421613;28;20206;-77
2024/02/11 13:40:45;;;;;;;0.50;0.50;;;11.60;99.90;;;;;;10422532;28;20636;-77
2024/02/11 13:45:49;;;;;;;0.60;0.60;;;11.60;99.90;;;;;;10423099;28;20695;-77
2024/02/11 13:50:51;;;;;;;0.50;0.50;;;11.70;99.90;;;;;;10444820;28;20706;-79
2024/02/11 13:55:53;;;;;;;0.70;0.70;;;11.70;99.90;;;;;;10436740;28;20210;-76
2024/02/11 14:00:58;;;;;;;0.70;0.70;;;11.70;99.90;;;;;;10415909;28;21042;-76
2024/02/11 14:06:00;;;;;;;0.60;0.60;;;11.50;99.90;;;;;;10423132;28;20213;-78
2024/02/11 14:11:04;;;;;;;0.60;0.60;;;11.50;99.90;;;;;;10435308;28;20197;-78
2024/02/11 14:16:10;;;;;;;0.80;0.80;;;11.60;99.90;;;;;;10455464;28;20628;-79
2024/02/11 14:21:12;;;;;;;0.47;0.47;;;11.70;99.90;;;;;;10445685;28;20308;-77
2024/02/11 14:26:14;;;;;;;0.70;0.70;;;11.80;99.90;;;;;;10441940;28;20218;-76
2024/02/11 14:31:18;;;;;;;0.60;0.60;;;11.80;99.90;;;;;;10448397;28;20197;-79
2024/02/11 14:36:21;;;;;;;0.80;0.80;;;11.80;99.90;;;;;;10437814;28;20259;-76
2024/02/11 14:41:23;;;;;;;0.60;0.60;;;11.80;99.90;;;;;;10425808;28;20210;-77
2024/02/11 14:46:27;;;;;;;0.80;0.80;;;11.90;99.90;;;;;;10444675;28;20780;-77
2024/02/11 14:51:29;;;;;;;0.70;0.70;;;11.90;99.90;;;;;;10427934;28;20251;-76
2024/02/11 14:56:32;;;;;;;0.93;0.93;;;11.80;99.90;;;;;;10440751;28;20209;-76
2024/02/11 15:01:35;;;;;;;1.00;1.00;;;11.70;99.90;;;;;;10435911;28;20201;-79
2024/02/11 15:06:38;;;;;;;0.80;0.80;;;11.60;99.90;;;;;;10430780;28;20643;-78
2024/02/11 15:11:41;;;;;;;0.70;0.70;;;11.60;99.90;;;;;;10417165;28;20194;-76
2024/02/11 15:16:45;;;;;;;0.80;0.80;;;11.60;99.90;;;;;;10435028;28;20290;-76
2024/02/11 15:21:48;;;;;;;0.70;0.70;;;11.50;99.90;;;;;;10441114;28;20197;-77
2024/02/11 15:26:50;;;;;;;0.80;0.80;;;11.50;99.90;;;;;;10442006;28;20221;-77
2024/02/11 15:31:54;;;;;;;0.60;0.60;;;11.60;99.90;;;;;;10441151;28;20212;-77
2024/02/11 15:36:56;;;;;;;0.53;0.53;;;11.60;99.90;;;;;;10448776;28;20213;-75
2024/02/11 15:42:00;;;;;;;0.70;0.70;;;11.50;99.90;;;;;;10441065;28;20201;-77
2024/02/11 15:47:04;;;;;;;0.67;0.67;;;11.50;99.90;;;;;;10441353;28;20221;-78
2024/02/11 15:52:09;;;;;;;0.50;0.50;;;11.40;99.90;;;;;;10437041;28;20201;-76
2024/02/11 15:57:13;;;;;;;0.67;0.67;;;11.40;99.90;;;;;;10434318;28;20213;-77
2024/02/11 16:02:17;;;;;;;0.67;0.67;;;11.40;99.90;;;;;;10425070;28;20205;-76
2024/02/11 16:07:21;;;;;;;0.77;0.77;;;11.40;99.90;;;;;;10416401;28;20464;-77
2024/02/11 16:12:24;;;;;;;0.90;0.90;;;11.40;99.90;;;;;;10409077;28;20217;-77
2024/02/11 16:17:36;;;;;;;0.80;0.80;;;11.30;99.90;;;;;;10411274;28;20221;-77
2024/02/11 16:22:39;;;;;;;0.80;0.80;;;11.20;99.90;;;;;;10442130;28;20728;-79
2024/02/11 16:27:42;;;;;;;0.70;0.70;;;11.20;99.90;;;;;;10422208;28;20802;-78
2024/02/11 16:32:47;;;;;;;0.67;0.67;;;11.00;99.90;;;;;;10435008;28;20221;-77
2024/02/11 16:37:51;;;;;;;0.60;0.60;;;11.00;99.90;;;;;;10432440;28;20266;-76
2024/02/11 16:42:53;;;;;;;0.60;0.60;;;11.00;99.90;;;;;;10437031;28;20190;-76
2024/02/11 16:47:58;;;;;;;0.70;0.70;;;11.00;99.90;;;;;;10446091;28;20225;-77
2024/02/11 16:53:00;;;;;;;0.70;0.70;;;11.00;99.90;;;;;;10437848;28;20193;-75
2024/02/11 16:58:02;;;;;;;0.70;0.70;;;10.90;99.90;;;;;;10440164;28;20218;-77
2024/02/11 17:03:06;;;;;;;0.70;0.70;;;10.80;99.90;;;;;;10450041;28;20202;-79
2024/02/11 17:08:10;;;;;;;0.70;0.70;;;10.80;99.90;;;;;;10444315;28;20653;-77
2024/02/11 17:13:13;;;;;;;0.70;0.70;;;10.70;99.90;;;;;;10440745;28;20899;-75
2024/02/11 17:18:16;;;;;;;0.70;0.70;;;10.70;99.90;;;;;;10444733;28;20279;-77
2024/02/11 17:23:19;;;;;;;0.60;0.60;;;10.70;99.90;;;;;;10442363;28;20205;-78
2024/02/11 17:28:21;;;;;;;0.70;0.70;;;10.50;99.90;;;;;;10431560;28;20233;-77
2024/02/11 17:33:26;;;;;;;0.70;0.70;;;10.50;99.90;;;;;;10443270;28;20213;-77
2024/02/11 17:38:29;;;;;;;0.80;0.80;;;10.40;99.90;;;;;;10450624;28;20287;-75
2024/02/11 17:43:31;;;;;;;0.70;0.70;;;10.30;99.90;;;;;;10434950;28;20205;-76
2024/02/11 17:48:35;;;;;;;0.80;0.80;;;10.20;99.90;;;;;;10451493;28;20221;-77
2024/02/11 17:53:38;;;;;;;0.60;0.60;;;10.10;99.90;;;;;;10451729;28;20231;-75
2024/02/11 17:58:41;;;;;;;0.70;0.70;;;10.10;99.90;;;;;;10425219;28;20595;-74
2024/02/11 18:03:47;;;;;;;0.70;0.70;;;10.10;99.90;;;;;;10430042;28;20193;-77
2024/02/11 18:08:50;;;;;;;0.70;0.70;;;10.20;99.90;;;;;;10431855;28;20224;-74
2024/02/11 18:13:53;;;;;;;0.70;0.70;;;10.10;99.90;;;;;;10415464;28;20258;-72
2024/02/11 18:18:58;;;;;;;0.70;0.70;;;10.00;99.90;;;;;;10421237;28;20241;-73
2024/02/11 18:24:00;;;;;;;0.60;0.60;;;10.00;99.90;;;;;;10426584;28;20678;-75
2024/02/11 18:29:03;;;;;;;0.70;0.70;;;10.00;99.90;;;;;;10413526;28;20276;-76
2024/02/11 18:34:08;;;;;;;0.50;0.50;;;9.90;99.90;;;;;;10416109;28;20202;-75
2024/02/11 18:39:14;;;;;;;0.70;0.70;;;9.90;99.90;;;;;;10419765;28;20743;-76
2024/02/11 18:44:16;;;;;;;0.70;0.70;;;9.90;99.90;;;;;;10420563;28;20201;-75
2024/02/11 18:49:20;;;;;;;0.60;0.60;;;9.90;99.90;;;;;;10422302;28;20229;-74
2024/02/11 18:54:22;;;;;;;0.40;0.40;;;9.90;99.90;;;;;;10428598;28;20899;-75
2024/02/11 18:59:25;;;;;;;0.50;0.50;;;9.90;99.90;;;;;;10421042;28;21006;-75
2024/02/11 19:04:29;;;;;;;0.50;0.50;;;9.90;99.90;;;;;;10420142;28;20232;-76
2024/02/11 19:09:31;;;;;;;0.40;0.40;;;9.90;99.90;;;;;;10406136;28;20226;-76
2024/02/11 19:14:33;;;;;;;0.50;0.50;;;9.90;99.90;;;;;;10424958;28;20209;-75
2024/02/11 19:19:37;;;;;;;0.70;0.70;;;9.80;99.90;;;;;;10423348;28;20202;-75
2024/02/11 19:24:40;;;;;;;0.60;0.60;;;9.80;99.90;;;;;;10422213;28;20209;-75
2024/02/11 19:29:42;;;;;;;0.60;0.60;;;9.70;99.90;;;;;;10423354;28;20279;-77
2024/02/11 19:34:48;;;;;;;0.60;0.60;;;9.70;99.90;;;;;;10417455;28;20240;-75
2024/02/11 19:39:50;;;;;;;0.60;0.60;;;9.70;99.90;;;;;;10480754;23;20240;-80
2024/02/11 19:44:52;;;;;;;0.60;0.60;;;9.70;99.90;;;;;;10488955;28;20200;-81
2024/02/11 19:49:56;;;;;;;0.60;0.60;;;9.70;99.90;;;;;;10462771;28;20225;-81
2024/02/11 19:54:59;;;;;;;0.60;0.60;;;9.60;99.90;;;;;;10456086;28;20201;-78
2024/02/11 20:00:07;;;;;;;0.60;0.60;;;9.60;99.90;;;;;;10457311;28;20258;-80
2024/02/11 20:05:12;;;;;;;0.57;0.57;;;9.60;99.90;;;;;;10442700;28;20259;-81
2024/02/11 20:10:15;;;;;;;0.70;0.70;;;9.50;99.90;;;;;;10454399;28;20233;-81
2024/02/11 20:15:17;;;;;;;0.60;0.60;;;9.50;99.90;;;;;;10457270;28;20282;-82
2024/02/11 20:20:21;;;;;;;0.50;0.50;;;9.50;99.90;;;;;;10453836;28;20217;-79
2024/02/11 20:25:25;;;;;;;0.60;0.60;;;9.50;99.90;;;;;;10455533;28;20727;-79
2024/02/11 20:30:29;;;;;;;0.50;0.50;;;9.50;99.90;;;;;;10452478;28;20233;-80
2024/02/11 20:35:35;;;;;;;0.70;0.70;;;9.40;99.90;;;;;;10465130;28;20665;-79
2024/02/11 20:40:37;;;;;;;0.50;0.50;;;9.40;99.90;;;;;;10472970;28;20229;-78
2024/02/11 20:45:40;;;;;;;0.50;0.50;;;9.40;99.90;;;;;;10463252;28;20639;-80
2024/02/11 20:50:44;;;;;;;0.70;0.70;;;9.40;99.90;;;;;;10443782;28;20236;-80
2024/02/11 20:55:47;;;;;;;0.60;0.60;;;9.30;99.90;;;;;;10458385;28;20259;-79
2024/02/11 21:00:50;;;;;;;0.50;0.50;;;9.30;99.90;;;;;;10454801;28;20597;-79
2024/02/11 21:05:54;;;;;;;0.60;0.60;;;9.30;99.90;;;;;;10452091;28;20740;-78
2024/02/11 21:10:57;;;;;;;0.70;0.70;;;9.20;99.90;;;;;;10449536;28;20283;-79
2024/02/11 21:15:59;;;;;;;0.60;0.60;;;9.20;99.90;;;;;;10451308;28;20991;-79
2024/02/11 21:21:03;;;;;;;0.60;0.60;;;9.30;99.90;;;;;;10450942;28;20703;-77
2024/02/11 21:26:05;;;;;;;0.60;0.60;;;9.30;99.90;;;;;;10454051;28;20200;-80
2024/02/11 21:31:08;;;;;;;0.40;0.40;;;9.20;99.90;;;;;;10453386;28;20714;-81
2024/02/11 21:36:15;;;;;;;0.40;0.40;;;9.10;99.90;;;;;;10447359;28;20201;-80
2024/02/11 21:41:17;;;;;;;0.50;0.50;;;9.10;99.90;;;;;;10452596;28;20270;-79
2024/02/11 21:46:20;;;;;;;0.40;0.40;;;9.10;99.90;;;;;;10450084;28;20197;-79
2024/02/11 21:51:24;;;;;;;0.40;0.40;;;9.10;99.90;;;;;;10422181;28;20225;-80
2024/02/11 21:56:27;;;;;;;0.40;0.40;;;9.20;99.90;;;;;;10444286;28;20236;-80
2024/02/11 22:01:29;;;;;;;0.30;0.30;;;9.20;99.90;;;;;;10456814;28;20799;-77
2024/02/11 22:06:34;;;;;;;0.50;0.50;;;9.30;99.90;;;;;;10455759;28;20201;-80
2024/02/11 22:11:37;;;;;;;0.40;0.40;;;9.30;99.90;;;;;;10455231;28;20745;-81
2024/02/11 22:16:40;;;;;;;0.50;0.50;;;9.20;99.90;;;;;;10454471;28;20639;-79
2024/02/11 22:21:43;;;;;;;0.50;0.50;;;9.30;99.90;;;;;;10452929;28;20197;-78
2024/02/11 22:26:46;;;;;;;0.40;0.40;;;9.30;99.90;;;;;;10457871;28;20311;-79
2024/02/11 22:31:48;;;;;;;0.50;0.50;;;9.40;99.90;;;;;;10464533;28;20205;-79
2024/02/11 22:36:52;;;;;;;0.40;0.40;;;9.40;99.90;;;;;;10454075;28;20607;-80
2024/02/11 22:41:54;;;;;;;0.40;0.40;;;9.50;99.90;;;;;;10455502;28;20201;-80
2024/02/11 22:46:57;;;;;;;0.40;0.40;;;9.50;99.90;;;;;;10455921;28;20296;-81
2024/02/11 22:52:01;;;;;;;0.57;0.57;;;9.50;99.90;;;;;;10455540;28;20221;-81
2024/02/11 22:57:03;;;;;;;0.53;0.53;;;9.40;99.90;;;;;;10460010;28;20787;-80
2024/02/11 23:02:06;;;;;;;0.50;0.50;;;9.40;99.90;;;;;;10452461;28;20221;-79
2024/02/11 23:07:10;;;;;;;0.70;0.70;;;9.30;99.90;;;;;;10450758;28;20641;-80
2024/02/11 23:12:14;;;;;;;0.40;0.40;;;9.20;99.90;;;;;;10451182;28;20575;-79
2024/02/11 23:17:16;;;;;;;0.50;0.50;;;9.10;99.90;;;;;;10450881;28;20229;-80
2024/02/11 23:22:21;;;;;;;0.50;0.50;;;9.10;99.90;;;;;;10450936;28;20213;-80
2024/02/11 23:27:26;;;;;;;0.40;0.40;;;9.10;99.90;;;;;;10450816;28;20228;-80
2024/02/11 23:32:30;;;;;;;0.40;0.40;;;9.10;99.90;;;;;;10443499;28;20220;-80
2024/02/11 23:37:35;;;;;;;0.50;0.50;;;9.00;99.90;;;;;;10449226;28;20236;-80
2024/02/11 23:42:37;;;;;;;0.47;0.47;;;9.10;99.90;;;;;;10451684;28;20859;-80
2024/02/11 23:47:39;;;;;;;0.60;0.60;;;9.00;99.90;;;;;;10447467;28;20236;-81
2024/02/11 23:52:44;;;;;;;0.50;0.50;;;9.10;99.90;;;;;;10452287;28;20220;-80
2024/02/11 23:57:46;;;;;;;0.40;0.40;;;9.10;99.90;;;;;;10457317;28;20225;-80
